Time;durP1;ratioP1;P1;durP2;ratioP2;P2;SDS_P1;SDS_P2;PMS_P1;PMS_P2;Temp;Humidity;BMP_temperature;BMP_pressure;BME280_temperature;BME280_humidity;BME280_pressure;Samples;Min_cycle;Max_cycle;Signal;HPM_P1;HPM_P2
2023/07/03 00:02:32;;;;;;;;;;;;;;;16.46;62.72;95682.75;6246730;28;19921;-70
2023/07/03 00:05:35;;;;;;;;;;;;;;;16.50;62.91;95676.13;6246206;28;19928;-70
2023/07/03 00:08:40;;;;;;;;;;;;;;;16.52;62.54;95681.25;6246843;28;19920;-70
2023/07/03 00:11:43;;;;;;;;;;;;;;;16.57;62.27;95678.94;6246103;28;19921;-69
2023/07/03 00:14:49;;;;;;;;;;;;;;;16.67;62.33;95690.22;6229394;28;20306;-69
2023/07/03 00:17:53;;;;;;;;;;;;;;;16.78;61.48;95686.44;6246072;28;19921;-69
2023/07/03 00:20:56;;;;;;;;;;;;;;;16.90;61.42;95695.72;6246571;28;20189;-69
2023/07/03 00:24:00;;;;;;;;;;;;;;;17.00;61.67;95696.38;6246290;28;19921;-70
2023/07/03 00:27:01;;;;;;;;;;;;;;;17.10;61.35;95700.66;6228351;28;19928;-70
2023/07/03 00:30:05;;;;;;;;;;;;;;;17.18;61.03;95703.31;6245569;28;20007;-69
2023/07/03 00:33:12;;;;;;;;;;;;;;;17.21;60.85;95697.66;6246215;28;19925;-69
2023/07/03 00:36:18;;;;;;;;;;;;;;;17.23;60.87;95701.81;6246096;28;19920;-69
2023/07/03 00:39:21;;;;;;;;;;;;;;;17.25;61.02;95715.78;6245894;28;19924;-69
2023/07/03 00:42:25;;;;;;;;;;;;;;;17.33;60.93;95720.25;6228655;28;20337;-69
2023/07/03 00:45:26;;;;;;;;;;;;;;;17.31;61.50;95719.59;6227515;28;19932;-70
2023/07/03 00:48:33;;;;;;;;;;;;;;;17.30;61.44;95717.94;6229080;28;20011;-69
2023/07/03 00:51:37;;;;;;;;;;;;;;;17.35;61.28;95720.91;6245402;28;19920;-69
2023/07/03 00:54:41;;;;;;;;;;;;;;;17.44;60.69;95719.91;6245874;28;20071;-69
2023/07/03 00:57:43;;;;;;;;;;;;;;;17.49;60.53;95722.88;6228084;28;19921;-70
2023/07/03 01:00:51;;;;;;;;;;;;;;;17.53;60.72;95723.34;6245716;28;19921;-69
2023/07/03 01:03:57;;;;;;;;;;;;;;;17.55;60.59;95733.81;6245916;28;19928;-69
2023/07/03 01:07:06;;;;;;;;;;;;;;;17.57;60.69;95737.13;6245161;28;19920;-69
2023/07/03 01:10:10;;;;;;;;;;;;;;;17.61;60.36;95747.28;6228277;28;19921;-69
2023/07/03 01:13:14;;;;;;;;;;;;;;;17.64;60.65;95746.09;6227261;28;19920;-69
2023/07/03 01:16:18;;;;;;;;;;;;;;;17.66;60.56;95755.59;6244777;28;19921;-69
2023/07/03 01:19:29;;;;;;;;;;;;;;;17.69;60.54;95749.91;6244421;28;20382;-71
2023/07/03 01:22:47;;;;;;;;;;;;;;;17.73;60.19;95747.75;6244987;28;20115;-69
2023/07/03 01:25:51;;;;;;;;;;;;;;;17.75;60.69;95748.41;6245436;28;20415;-70
2023/07/03 01:28:57;;;;;;;;;;;;;;;17.76;60.61;95750.06;6245182;28;19921;-69
2023/07/03 01:31:58;;;;;;;;;;;;;;;17.82;60.70;95749.41;6244655;28;20089;-69
2023/07/03 01:35:03;;;;;;;;;;;;;;;17.89;60.07;95754.84;6244908;28;19921;-69
2023/07/03 01:38:08;;;;;;;;;;;;;;;17.95;60.50;95760.34;6227224;28;20006;-70
2023/07/03 01:41:11;;;;;;;;;;;;;;;17.96;60.66;95761.16;6244616;28;19928;-69
2023/07/03 01:44:14;;;;;;;;;;;;;;;18.10;60.31;95762.25;6244923;28;19917;-69
2023/07/03 01:47:15;;;;;;;;;;;;;;;18.19;60.48;95761.22;6244281;28;19921;-70
2023/07/03 01:50:18;;;;;;;;;;;;;;;18.20;60.20;95762.03;6244946;28;20307;-69
2023/07/03 01:53:21;;;;;;;;;;;;;;;18.28;60.05;95754.84;6244856;28;20339;-69
2023/07/03 01:56:30;;;;;;;;;;;;;;;18.38;59.91;95759.97;6245044;28;20310;-70
2023/07/03 01:59:34;;;;;;;;;;;;;;;18.51;59.85;95754.03;6244922;28;20314;-70
2023/07/03 02:02:36;;;;;;;;;;;;;;;18.67;59.26;95759.28;6210534;28;19979;-70
2023/07/03 02:05:39;;;;;;;;;;;;;;;18.88;59.27;95764.00;6244247;28;19948;-69
2023/07/03 02:08:40;;;;;;;;;;;;;;;19.08;58.98;95761.69;6244281;28;19921;-70
2023/07/03 02:11:44;;;;;;;;;;;;;;;19.25;58.51;95773.88;6244446;28;19921;-69
2023/07/03 02:14:47;;;;;;;;;;;;;;;19.39;58.41;95774.06;6226812;28;20375;-70
2023/07/03 02:17:55;;;;;;;;;;;;;;;19.60;57.99;95781.38;6244158;28;20031;-68
2023/07/03 02:20:56;;;;;;;;;;;;;;;19.82;57.63;95774.34;6244005;28;19933;-69
2023/07/03 02:23:58;;;;;;;;;;;;;;;20.04;56.92;95776.09;6244135;28;19920;-70
2023/07/03 02:27:02;;;;;;;;;;;;;;;20.25;56.62;95775.31;6226595;28;20012;-70
2023/07/03 02:30:06;;;;;;;;;;;;;;;20.46;56.33;95785.22;6244412;28;19921;-69
2023/07/03 02:33:07;;;;;;;;;;;;;;;20.71;56.04;95774.22;6243629;28;20295;-69
2023/07/03 02:36:10;;;;;;;;;;;;;;;20.98;55.47;95781.50;6243707;28;19920;-70
2023/07/03 02:39:11;;;;;;;;;;;;;;;21.29;54.96;95777.69;6245350;28;19928;-69
2023/07/03 02:42:14;;;;;;;;;;;;;;;21.53;54.56;95779.13;6248282;28;19988;-70
2023/07/03 02:45:20;;;;;;;;;;;;;;;21.77;54.06;95785.91;6248590;28;20011;-69
2023/07/03 02:48:21;;;;;;;;;;;;;;;21.94;53.79;95786.41;6248489;28;19979;-70
2023/07/03 02:51:25;;;;;;;;;;;;;;;22.14;53.68;95776.63;6248494;28;19921;-70
2023/07/03 02:54:26;;;;;;;;;;;;;;;22.35;53.05;95778.41;6229762;28;19927;-69
2023/07/03 02:57:29;;;;;;;;;;;;;;;22.44;52.83;95780.91;6248546;28;20327;-70
2023/07/03 03:00:30;;;;;;;;;;;;;;;22.38;52.88;95783.34;6247651;28;19931;-69
2023/07/03 03:03:31;;;;;;;;;;;;;;;22.21;53.07;95792.75;6230406;28;19927;-69
2023/07/03 03:06:34;;;;;;;;;;;;;;;22.00;53.42;95785.63;6247049;28;20402;-70
2023/07/03 03:09:40;;;;;;;;;;;;;;;21.65;54.05;95787.44;6248049;28;20062;-70
2023/07/03 03:12:44;;;;;;;;;;;;;;;21.46;54.25;95795.13;6230804;28;19921;-71
2023/07/03 03:15:48;;;;;;;;;;;;;;;21.34;54.34;95801.97;6230501;28;20023;-70
2023/07/03 03:18:51;;;;;;;;;;;;;;;21.31;54.38;95802.38;6247314;28;19928;-70
2023/07/03 03:21:52;;;;;;;;;;;;;;;21.40;54.08;95811.97;6247326;28;20349;-71
2023/07/03 03:24:53;;;;;;;;;;;;;;;21.45;53.96;95808.69;6247313;28;19920;-70
2023/07/03 03:27:56;;;;;;;;;;;;;;;21.46;53.86;95805.84;6245273;28;20018;-70
2023/07/03 03:30:59;;;;;;;;;;;;;;;21.50;53.73;95807.09;6246663;28;19921;-70
2023/07/03 03:34:03;;;;;;;;;;;;;;;21.64;53.54;95809.88;6246641;28;19917;-69
2023/07/03 03:37:05;;;;;;;;;;;;;;;21.67;53.36;95812.19;6246416;28;19924;-70
2023/07/03 03:40:09;;;;;;;;;;;;;;;21.72;53.31;95812.44;6247318;28;19921;-70
2023/07/03 03:43:10;;;;;;;;;;;;;;;21.85;52.64;95817.84;6246790;28;19976;-69
2023/07/03 03:46:12;;;;;;;;;;;;;;;21.95;52.64;95815.66;6247204;28;19924;-70
2023/07/03 03:49:13;;;;;;;;;;;;;;;22.07;52.30;95807.09;6246471;28;19921;-70
2023/07/03 03:52:14;;;;;;;;;;;;;;;22.10;51.89;95812.03;6246244;28;20422;-70
2023/07/03 03:55:15;;;;;;;;;;;;;;;22.10;51.92;95806.69;6246475;28;20038;-70
2023/07/03 03:58:16;;;;;;;;;;;;;;;22.33;50.99;95812.59;6246355;28;20000;-70
2023/07/03 04:01:23;;;;;;;;;;;;;;;22.40;50.68;95818.84;6246708;28;19923;-70
2023/07/03 04:04:24;;;;;;;;;;;;;;;22.75;49.61;95815.25;6246288;28;19928;-69
2023/07/03 04:07:27;;;;;;;;;;;;;;;22.80;49.07;95813.63;6246075;28;19924;-70
2023/07/03 04:10:28;;;;;;;;;;;;;;;22.81;49.27;95809.91;6246222;28;19925;-70
2023/07/03 04:13:32;;;;;;;;;;;;;;;23.02;48.95;95813.53;6246507;28;19917;-70
2023/07/03 04:16:36;;;;;;;;;;;;;;;23.20;48.15;95813.75;6246309;28;20379;-70
2023/07/03 04:19:40;;;;;;;;;;;;;;;23.64;46.44;95825.75;6245680;28;19916;-70
2023/07/03 04:22:41;;;;;;;;;;;;;;;24.24;45.92;95836.47;6245921;28;19996;-70
2023/07/03 04:25:43;;;;;;;;;;;;;;;24.96;44.60;95834.56;6245807;28;20387;-69
2023/07/03 04:28:48;;;;;;;;;;;;;;;25.45;43.82;95837.59;6246174;28;19925;-70
2023/07/03 04:31:53;;;;;;;;;;;;;;;25.81;42.52;95841.50;6246314;28;20306;-69
2023/07/03 04:34:57;;;;;;;;;;;;;;;26.16;41.58;95852.63;6246472;28;20295;-71
2023/07/03 04:38:01;;;;;;;;;;;;;;;26.35;41.04;95850.75;6245302;28;20379;-70
2023/07/03 04:41:04;;;;;;;;;;;;;;;26.56;41.21;95847.66;6245821;28;20387;-70
2023/07/03 04:44:12;;;;;;;;;;;;;;;26.92;40.57;95855.94;6245474;28;19920;-69
2023/07/03 04:47:16;;;;;;;;;;;;;;;27.16;39.65;95870.44;6245947;28;19921;-70
2023/07/03 04:50:17;;;;;;;;;;;;;;;27.30;39.19;95867.31;6245573;28;19932;-70
2023/07/03 04:53:21;;;;;;;;;;;;;;;27.22;39.29;95873.03;6228448;28;19916;-70
2023/07/03 04:56:24;;;;;;;;;;;;;;;27.22;39.25;95873.03;6244753;28;19921;-70
2023/07/03 04:59:29;;;;;;;;;;;;;;;27.17;39.55;95877.47;6245472;28;19917;-70
2023/07/03 05:02:33;;;;;;;;;;;;;;;27.15;39.89;95883.06;6245340;28;20418;-70
2023/07/03 05:05:36;;;;;;;;;;;;;;;27.39;39.74;95877.78;6244873;28;19998;-69
2023/07/03 05:08:37;;;;;;;;;;;;;;;27.45;39.48;95884.97;6244726;28;19975;-69
2023/07/03 05:11:38;;;;;;;;;;;;;;;27.41;39.08;95894.59;6244856;28;19921;-69
2023/07/03 05:14:44;;;;;;;;;;;;;;;27.17;38.95;95889.09;6228239;28;20000;-69
2023/07/03 05:17:50;;;;;;;;;;;;;;;26.97;39.33;95886.59;6244662;28;19925;-70
2023/07/03 05:20:51;;;;;;;;;;;;;;;27.26;39.08;95890.44;6244526;28;19943;-70
2023/07/03 05:23:54;;;;;;;;;;;;;;;27.74;37.99;95883.28;6244685;28;20015;-69
2023/07/03 05:26:57;;;;;;;;;;;;;;;28.96;36.14;95893.47;6245001;28;19932;-71
2023/07/03 05:30:01;;;;;;;;;;;;;;;29.75;34.46;95903.69;6244531;28;20409;-70
2023/07/03 05:33:03;;;;;;;;;;;;;;;29.81;35.35;95902.72;6244265;28;19927;-70
2023/07/03 05:36:05;;;;;;;;;;;;;;;30.25;34.20;95897.50;6243886;28;20027;-71
2023/07/03 05:39:08;;;;;;;;;;;;;;;30.43;34.18;95899.97;6244258;28;19927;-71
2023/07/03 05:42:09;;;;;;;;;;;;;;;30.64;33.96;95901.06;6244149;28;19921;-70
2023/07/03 05:45:14;;;;;;;;;;;;;;;30.70;34.22;95904.69;6244786;28;19920;-70
2023/07/03 05:48:23;;;;;;;;;;;;;;;30.58;34.71;95903.97;6244786;28;20338;-71
2023/07/03 05:51:26;;;;;;;;;;;;;;;30.58;33.96;95912.13;6244863;28;20247;-70
2023/07/03 05:54:28;;;;;;;;;;;;;;;29.99;35.09;95910.63;6243860;28;19921;-71
2023/07/03 05:57:30;;;;;;;;;;;;;;;29.30;35.46;95907.19;6243950;28;19975;-71
2023/07/03 06:00:33;;;;;;;;;;;;;;;28.73;36.09;95909.75;6244333;28;20333;-70
2023/07/03 06:03:37;;;;;;;;;;;;;;;28.26;37.04;95909.75;6243849;28;19920;-70
2023/07/03 06:06:40;;;;;;;;;;;;;;;28.02;37.58;95907.00;6243867;28;19928;-70
2023/07/03 06:09:45;;;;;;;;;;;;;;;28.27;37.11;95909.50;6244816;28;19921;-70
2023/07/03 06:12:48;;;;;;;;;;;;;;;28.88;36.23;95904.66;6243837;28;19937;-71
2023/07/03 06:15:49;;;;;;;;;;;;;;;29.49;35.19;95911.31;6247503;28;19929;-70
2023/07/03 06:18:55;;;;;;;;;;;;;;;29.81;35.10;95913.59;6249170;28;19921;-71
2023/07/03 06:22:01;;;;;;;;;;;;;;;30.39;33.90;95909.66;6231681;28;20398;-71
2023/07/03 06:25:06;;;;;;;;;;;;;;;31.80;32.46;95912.03;6249182;28;19921;-71
2023/07/03 06:28:07;;;;;;;;;;;;;;;32.67;31.78;95912.75;6248944;28;19943;-70
2023/07/03 06:31:08;;;;;;;;;;;;;;;33.08;30.73;95914.66;6231253;28;20408;-71
2023/07/03 06:34:09;;;;;;;;;;;;;;;33.43;30.78;95913.16;6248444;28;19921;-70
2023/07/03 06:37:13;;;;;;;;;;;;;;;33.77;29.90;95909.97;6248799;28;20002;-72
2023/07/03 06:40:15;;;;;;;;;;;;;;;33.87;30.41;95907.28;6248405;28;20006;-70
2023/07/03 06:43:16;;;;;;;;;;;;;;;33.90;30.31;95917.66;6247971;28;20290;-70
2023/07/03 06:46:18;;;;;;;;;;;;;;;33.44;29.06;95901.16;6247694;28;19921;-70
2023/07/03 06:49:24;;;;;;;;;;;;;;;32.62;29.83;95903.47;6247733;28;19921;-70
2023/07/03 06:52:25;;;;;;;;;;;;;;;32.63;30.93;95896.94;6248047;28;20321;-70
2023/07/03 06:55:26;;;;;;;;;;;;;;;33.41;30.10;95898.16;6247737;28;19940;-71
2023/07/03 06:58:29;;;;;;;;;;;;;;;34.83;28.21;95896.63;6248364;28;20008;-71
2023/07/03 07:01:33;;;;;;;;;;;;;;;35.98;27.36;95902.91;6248319;28;19927;-71
2023/07/03 07:04:33;;;;;;;;;;;;;;;38.55;22.36;95898.81;6247417;28;20401;-70
2023/07/03 07:07:37;;;;;;;;;;;;;;;41.32;20.45;95909.91;6230811;28;19920;-69
2023/07/03 07:10:40;;;;;;;;;;;;;;;44.78;18.38;95903.50;6230593;28;19921;-71
2023/07/03 07:13:47;;;;;;;;;;;;;;;48.19;16.83;95914.75;6248108;28;20299;-70
2023/07/03 07:16:50;;;;;;;;;;;;;;;51.54;15.69;95919.22;6247731;28;19925;-70
2023/07/03 07:19:53;;;;;;;;;;;;;;;53.97;13.57;95907.88;6247888;28;19920;-70
2023/07/03 07:22:57;;;;;;;;;;;;;;;55.20;13.42;95904.03;6230214;28;20316;-71
2023/07/03 07:26:02;;;;;;;;;;;;;;;55.32;10.93;95906.41;6247507;28;19927;-69
2023/07/03 07:29:05;;;;;;;;;;;;;;;55.74;13.32;95914.88;6246985;28;19974;-70
2023/07/03 07:32:08;;;;;;;;;;;;;;;56.58;12.96;95917.16;6247096;28;20090;-69
2023/07/03 07:35:11;;;;;;;;;;;;;;;56.11;10.01;95911.25;6246129;28;19928;-71
2023/07/03 07:38:14;;;;;;;;;;;;;;;54.84;11.17;95906.28;6247037;28;20379;-70
2023/07/03 07:41:19;;;;;;;;;;;;;;;54.10;12.69;95899.78;6246941;28;20350;-69
2023/07/03 07:44:23;;;;;;;;;;;;;;;54.21;10.81;95906.19;6246742;28;20011;-71
2023/07/03 07:47:25;;;;;;;;;;;;;;;52.06;12.15;95889.91;6246916;28;19991;-70
2023/07/03 07:50:27;;;;;;;;;;;;;;;47.99;16.84;95880.41;6245528;28;20023;-71
2023/07/03 07:53:31;;;;;;;;;;;;;;;43.76;18.77;95866.06;6246230;28;19920;-70
2023/07/03 07:56:36;;;;;;;;;;;;;;;39.93;19.47;95850.03;6246029;28;19920;-71
2023/07/03 07:59:40;;;;;;;;;;;;;;;37.17;22.52;95848.66;6246784;28;19921;-71
2023/07/03 08:02:43;;;;;;;;;;;;;;;35.16;23.78;95845.13;6246914;28;19927;-71
2023/07/03 08:05:47;;;;;;;;;;;;;;;33.48;24.95;95844.16;6246737;28;19916;-72
2023/07/03 08:08:50;;;;;;;;;;;;;;;32.45;25.55;95853.78;6246521;28;19921;-71
2023/07/03 08:11:53;;;;;;;;;;;;;;;31.85;26.20;95844.03;6246701;28;19976;-71
2023/07/03 08:14:56;;;;;;;;;;;;;;;31.38;26.12;95856.41;6246647;28;19928;-71
2023/07/03 08:17:59;;;;;;;;;;;;;;;31.58;26.06;95855.78;6228451;28;19921;-71
2023/07/03 08:21:03;;;;;;;;;;;;;;;32.19;24.90;95856.34;6246162;28;20023;-71
2023/07/03 08:24:06;;;;;;;;;;;;;;;33.18;24.28;95855.78;6246119;28;19921;-72
2023/07/03 08:27:10;;;;;;;;;;;;;;;34.89;22.41;95859.97;6246059;28;20063;-72
2023/07/03 08:30:14;;;;;;;;;;;;;;;36.71;21.25;95869.19;6246054;28;19921;-72
2023/07/03 08:33:19;;;;;;;;;;;;;;;39.62;18.77;95871.94;6246094;28;20066;-71
2023/07/03 08:36:23;;;;;;;;;;;;;;;44.17;15.86;95881.88;6245663;28;19921;-72
2023/07/03 08:39:26;;;;;;;;;;;;;;;48.78;13.12;95888.41;6245365;28;19928;-70
2023/07/03 08:42:33;;;;;;;;;;;;;;;52.28;12.04;95904.03;6245956;28;20361;-71
2023/07/03 08:45:38;;;;;;;;;;;;;;;54.17;10.96;95900.56;6245752;28;20409;-70
2023/07/03 08:48:42;;;;;;;;;;;;;;;54.46;11.12;95906.09;6228252;28;19921;-70
2023/07/03 08:51:46;;;;;;;;;;;;;;;53.62;11.75;95903.88;6245736;28;19920;-71
2023/07/03 08:54:51;;;;;;;;;;;;;;;50.83;14.03;95891.34;6245804;28;19948;-70
2023/07/03 08:57:53;;;;;;;;;;;;;;;47.36;15.82;95880.53;6245585;28;20335;-71
2023/07/03 09:01:18;;;;;;;;;;;;;;;45.44;16.96;95864.47;6245497;28;20377;-71
2023/07/03 09:04:38;;;;;;;;;;;;;;;43.26;18.25;95871.25;6227662;28;20047;-71
2023/07/03 09:07:40;;;;;;;;;;;;;;;43.75;17.69;95867.22;6244939;28;20390;-70
2023/07/03 09:10:47;;;;;;;;;;;;;;;42.93;17.28;95857.22;6245543;28;20006;-71
2023/07/03 09:13:52;;;;;;;;;;;;;;;40.84;19.32;95856.31;6245559;28;19921;-71
2023/07/03 09:16:56;;;;;;;;;;;;;;;38.66;21.25;95848.03;6245331;28;19920;-71
2023/07/03 09:19:59;;;;;;;;;;;;;;;37.30;21.22;95846.00;6244557;28;19927;-71
2023/07/03 09:23:19;;;;;;;;;;;;;;;35.58;23.05;95847.38;6245365;28;20035;-71
2023/07/03 09:26:24;;;;;;;;;;;;;;;34.23;24.60;95844.53;6244813;28;19920;-71
2023/07/03 09:29:29;;;;;;;;;;;;;;;33.62;24.93;95849.94;6244158;28;19948;-71
2023/07/03 09:32:31;;;;;;;;;;;;;;;33.47;24.80;95853.44;6244478;28;19943;-71
2023/07/03 09:35:41;;;;;;;;;;;;;;;33.31;24.57;95860.75;6245110;28;19921;-70
2023/07/03 09:38:42;;;;;;;;;;;;;;;33.15;24.58;95856.34;6245017;28;19921;-71
2023/07/03 09:41:46;;;;;;;;;;;;;;;32.97;24.83;95863.88;6244951;28;20306;-71
2023/07/03 09:44:50;;;;;;;;;;;;;;;32.36;26.15;95860.81;6245014;28;20311;-71
2023/07/03 09:47:55;;;;;;;;;;;;;;;31.72;27.25;95862.44;6245658;28;19921;-72
2023/07/03 09:50:56;;;;;;;;;;;;;;;30.94;28.88;95858.31;6248968;28;19920;-71
2023/07/03 09:54:03;;;;;;;;;;;;;;;30.41;28.99;95853.25;6249158;28;19925;-70
2023/07/03 09:57:05;;;;;;;;;;;;;;;29.75;30.05;95863.88;6249088;28;19921;-70
2023/07/03 10:00:14;;;;;;;;;;;;;;;29.42;29.81;95869.19;6249576;28;20383;-72
2023/07/03 10:03:26;;;;;;;;;;;;;;;28.91;30.51;95887.94;6248788;28;19928;-72
2023/07/03 10:06:32;;;;;;;;;;;;;;;28.57;31.61;95897.78;6249352;28;19921;-72
2023/07/03 10:09:34;;;;;;;;;;;;;;;28.52;34.09;95920.13;6248957;28;19931;-71
2023/07/03 10:12:45;;;;;;;;;;;;;;;27.26;35.41;95925.56;6249406;28;19925;-71
2023/07/03 10:15:51;;;;;;;;;;;;;;;26.55;37.54;95940.44;6249326;28;20012;-71
2023/07/03 10:18:57;;;;;;;;;;;;;;;25.69;38.87;95951.84;6232338;28;19921;-71
2023/07/03 10:22:02;;;;;;;;;;;;;;;25.46;40.86;95974.75;6249033;28;20273;-71
2023/07/03 10:25:05;;;;;;;;;;;;;;;24.42;42.62;95965.69;6248559;28;19921;-70
2023/07/03 10:28:12;;;;;;;;;;;;;;;23.97;44.44;95964.66;6248997;28;19928;-69
2023/07/03 10:31:17;;;;;;;;;;;;;;;23.23;45.21;95974.34;6247505;28;19959;-71
2023/07/03 10:34:31;;;;;;;;;;;;;;;22.82;46.72;95967.13;6248359;28;20310;-72
2023/07/03 10:37:38;;;;;;;;;;;;;;;22.64;47.19;95964.13;6247577;28;20019;-71
2023/07/03 10:41:03;;;;;;;;;;;;;;;22.73;47.17;95952.25;6248925;28;19929;-71
2023/07/03 10:44:09;;;;;;;;;;;;;;;22.62;46.83;95955.47;6248376;28;20011;-71
2023/07/03 10:47:24;;;;;;;;;;;;;;;22.66;47.76;95948.69;6248628;28;19928;-71
2023/07/03 10:50:47;;;;;;;;;;;;;;;22.68;46.63;95952.00;6248464;28;20023;-72
2023/07/03 10:53:53;;;;;;;;;;;;;;;22.82;45.89;95945.69;6248458;28;20302;-71
2023/07/03 10:56:55;;;;;;;;;;;;;;;23.02;45.31;95939.63;6247568;28;19920;-70
2023/07/03 10:59:57;;;;;;;;;;;;;;;23.26;44.99;95947.13;6247493;28;19973;-71
2023/07/03 11:03:34;;;;;;;;;;;;;;;23.48;44.09;95950.50;6248343;28;19917;-71
2023/07/03 11:06:39;;;;;;;;;;;;;;;23.54;44.10;95948.84;6204168;28;19964;-71
2023/07/03 11:09:46;;;;;;;;;;;;;;;23.69;44.28;95941.47;6247999;28;19921;-71
2023/07/03 11:12:52;;;;;;;;;;;;;;;23.72;44.94;95946.47;6247977;28;19928;-70
2023/07/03 11:16:27;;;;;;;;;;;;;;;23.45;45.01;95934.78;6248122;28;20011;-70
2023/07/03 11:19:53;;;;;;;;;;;;;;;23.21;45.03;95933.50;6205096;28;19921;-71
2023/07/03 11:23:15;;;;;;;;;;;;;;;23.81;43.84;95932.81;6231046;28;19967;-71
2023/07/03 11:26:39;;;;;;;;;;;;;;;24.84;42.24;95938.53;6247872;28;19921;-71
2023/07/03 11:29:44;;;;;;;;;;;;;;;26.77;38.81;95937.31;6247651;28;19924;-70
2023/07/03 11:32:46;;;;;;;;;;;;;;;28.91;35.66;95942.09;6246827;28;20147;-72
2023/07/03 11:35:53;;;;;;;;;;;;;;;31.14;33.25;95955.53;6247501;28;19921;-71
2023/07/03 11:39:19;;;;;;;;;;;;;;;32.97;30.68;95964.69;6247172;28;19921;-71
2023/07/03 11:42:26;;;;;;;;;;;;;;;34.58;28.77;95988.44;6236747;28;19928;-70
2023/07/03 11:45:27;;;;;;;;;;;;;;;35.03;28.05;95994.16;6247317;28;19921;-71
2023/07/03 11:48:28;;;;;;;;;;;;;;;34.71;29.23;96003.50;6246355;28;19921;-72
2023/07/03 11:51:36;;;;;;;;;;;;;;;34.12;29.84;96012.16;6247123;28;19940;-72
2023/07/03 11:54:43;;;;;;;;;;;;;;;33.26;30.86;96007.94;6247050;28;20446;-72
2023/07/03 11:57:45;;;;;;;;;;;;;;;32.48;32.00;96007.69;6246340;28;20330;-72
2023/07/03 12:01:07;;;;;;;;;;;;;;;31.56;33.12;96010.19;6245833;28;19920;-73
2023/07/03 12:04:08;;;;;;;;;;;;;;;30.59;33.58;96009.59;6246157;28;19928;-72
2023/07/03 12:07:18;;;;;;;;;;;;;;;29.74;34.63;96005.91;6246920;28;19920;-71
2023/07/03 12:10:27;;;;;;;;;;;;;;;29.06;34.44;96004.75;6246551;28;19921;-71
2023/07/03 12:13:41;;;;;;;;;;;;;;;28.02;35.84;95998.94;6245112;28;19921;-72
2023/07/03 12:16:47;;;;;;;;;;;;;;;27.74;36.12;96005.75;6246049;28;19921;-72
2023/07/03 12:19:52;;;;;;;;;;;;;;;28.11;36.01;96008.38;6245525;28;19967;-71
2023/07/03 12:22:58;;;;;;;;;;;;;;;28.49;35.54;96009.91;6246345;28;20378;-71
2023/07/03 12:26:03;;;;;;;;;;;;;;;28.61;36.05;96009.91;6246309;28;19921;-70
2023/07/03 12:29:05;;;;;;;;;;;;;;;28.19;36.60;96005.34;6244916;28;19921;-71
2023/07/03 12:32:08;;;;;;;;;;;;;;;27.80;37.49;96011.31;6245227;28;20310;-70
2023/07/03 12:35:14;;;;;;;;;;;;;;;27.63;37.62;96006.53;6245821;28;19971;-71
2023/07/03 12:38:19;;;;;;;;;;;;;;;27.52;37.45;95993.78;6245568;28;19921;-71
2023/07/03 12:41:25;;;;;;;;;;;;;;;27.33;37.83;95994.88;6244485;28;20002;-72
2023/07/03 12:44:28;;;;;;;;;;;;;;;27.01;39.05;95997.69;6244597;28;19921;-71
2023/07/03 12:47:32;;;;;;;;;;;;;;;26.60;39.84;95993.72;6228047;28;20488;-71
2023/07/03 12:50:55;;;;;;;;;;;;;;;26.31;39.05;95996.00;6244894;28;19925;-71
2023/07/03 12:53:57;;;;;;;;;;;;;;;26.03;40.08;95999.13;6244654;28;20001;-71
2023/07/03 12:57:02;;;;;;;;;;;;;;;25.76;40.51;95999.28;6227378;28;20539;-72
2023/07/03 13:00:06;;;;;;;;;;;;;;;25.47;40.27;95997.94;6245046;28;19917;-73
2023/07/03 13:03:12;;;;;;;;;;;;;;;25.35;40.62;96004.22;6244257;28;20317;-71
2023/07/03 13:06:17;;;;;;;;;;;;;;;25.42;39.72;96008.56;6244066;28;19916;-71
2023/07/03 13:09:21;;;;;;;;;;;;;;;25.57;39.85;96015.53;6245211;28;19921;-71
2023/07/03 13:12:24;;;;;;;;;;;;;;;25.68;40.17;96026.47;6244301;28;19921;-72
2023/07/03 13:15:36;;;;;;;;;;;;;;;25.75;40.65;96031.81;6243868;28;19927;-71
2023/07/03 13:18:37;;;;;;;;;;;;;;;25.81;41.36;96047.09;6244667;28;19921;-71
2023/07/03 13:21:40;;;;;;;;;;;;;;;25.67;41.57;96050.91;6245047;28;19921;-72
2023/07/03 13:24:48;;;;;;;;;;;;;;;25.39;42.92;96070.06;6244309;28;19921;-71
2023/07/03 13:27:57;;;;;;;;;;;;;;;25.13;43.84;96066.38;6244817;28;19924;-71
2023/07/03 13:31:06;;;;;;;;;;;;;;;24.81;44.62;96062.72;6227319;28;20318;-72
2023/07/03 13:34:12;;;;;;;;;;;;;;;24.57;45.20;96062.34;6243411;28;19927;-71
2023/07/03 13:37:20;;;;;;;;;;;;;;;24.29;45.75;96065.19;6244230;28;20521;-71
2023/07/03 13:40:24;;;;;;;;;;;;;;;24.08;46.19;96079.59;6227193;28;19920;-72
2023/07/03 13:43:30;;;;;;;;;;;;;;;23.86;46.87;96083.47;6227238;28;20314;-71
2023/07/03 13:46:33;;;;;;;;;;;;;;;23.61;48.04;96081.28;6244061;28;19928;-71
2023/07/03 13:49:36;;;;;;;;;;;;;;;23.31;48.52;96078.88;6244861;28;19921;-72
2023/07/03 13:52:39;;;;;;;;;;;;;;;23.03;48.95;96080.78;6244922;28;19921;-71
2023/07/03 13:55:43;;;;;;;;;;;;;;;22.84;49.86;96085.78;6244769;28;19921;-71
2023/07/03 13:58:48;;;;;;;;;;;;;;;22.75;51.08;96086.13;6244014;28;19976;-72
2023/07/03 14:01:56;;;;;;;;;;;;;;;22.41;51.94;96087.69;6244587;28;19921;-71
2023/07/03 14:05:00;;;;;;;;;;;;;;;22.19;52.46;96089.53;6245012;28;20379;-72
2023/07/03 14:08:05;;;;;;;;;;;;;;;22.02;52.87;96090.78;6244838;28;19944;-71
2023/07/03 14:11:10;;;;;;;;;;;;;;;21.94;51.98;96092.56;6243960;28;20018;-70
2023/07/03 14:14:16;;;;;;;;;;;;;;;21.93;52.19;96084.72;6244876;28;19921;-71
2023/07/03 14:17:19;;;;;;;;;;;;;;;21.88;51.98;96079.09;6227315;28;20023;-71
2023/07/03 14:20:25;;;;;;;;;;;;;;;21.90;52.53;96085.91;6244616;28;19921;-70
2023/07/03 14:23:26;;;;;;;;;;;;;;;22.06;52.35;96086.72;6244759;28;19921;-72
2023/07/03 14:26:30;;;;;;;;;;;;;;;22.27;52.13;96086.75;6243784;28;20387;-71
2023/07/03 14:29:32;;;;;;;;;;;;;;;22.44;51.79;96094.53;6244497;28;19927;-70
2023/07/03 14:32:33;;;;;;;;;;;;;;;22.59;51.14;96089.91;6244359;28;19927;-71
2023/07/03 14:35:36;;;;;;;;;;;;;;;22.77;51.33;96090.25;6245321;28;19921;-70
2023/07/03 14:38:42;;;;;;;;;;;;;;;23.18;50.27;96099.44;6222856;28;20252;-71
2023/07/03 14:41:43;;;;;;;;;;;;;;;23.56;49.43;96102.53;6223684;28;20395;-70
2023/07/03 14:44:44;;;;;;;;;;;;;;;23.83;49.18;96108.03;6223731;28;20295;-72
2023/07/03 14:47:45;;;;;;;;;;;;;;;23.88;49.40;96110.97;6222696;28;19921;-70
2023/07/03 14:50:49;;;;;;;;;;;;;;;23.95;48.83;96107.28;6223496;28;19928;-70
2023/07/03 14:53:57;;;;;;;;;;;;;;;24.12;48.80;96107.75;6223796;28;19928;-71
2023/07/03 14:57:00;;;;;;;;;;;;;;;24.24;49.02;96099.09;6223605;28;19925;-72
2023/07/03 15:00:06;;;;;;;;;;;;;;;24.29;48.52;96107.34;6223503;28;19928;-73
2023/07/03 15:03:08;;;;;;;;;;;;;;;24.28;49.08;96119.13;6223350;28;19929;-72
2023/07/03 15:06:12;;;;;;;;;;;;;;;24.12;48.82;96113.13;6221701;28;20007;-73
2023/07/03 15:09:13;;;;;;;;;;;;;;;24.09;49.29;96123.41;6223394;28;19922;-70
2023/07/03 15:12:18;;;;;;;;;;;;;;;24.14;49.61;96121.78;6223398;28;20378;-70
2023/07/03 15:15:24;;;;;;;;;;;;;;;24.44;48.87;96126.03;6223543;28;19922;-73
2023/07/03 15:18:25;;;;;;;;;;;;;;;24.37;48.73;96139.41;6223261;28;20888;-70
2023/07/03 15:21:26;;;;;;;;;;;;;;;24.16;48.92;96140.41;6223199;28;19922;-70
2023/07/03 15:24:27;;;;;;;;;;;;;;;23.98;49.29;96132.91;6222816;28;19925;-72
2023/07/03 15:27:29;;;;;;;;;;;;;;;23.72;50.06;96137.16;6220857;28;20406;-70
2023/07/03 15:30:30;;;;;;;;;;;;;;;23.50;50.63;96135.56;6222556;28;19922;-72
2023/07/03 15:33:35;;;;;;;;;;;;;;;23.25;51.23;96127.16;6222769;28;19921;-71
2023/07/03 15:36:38;;;;;;;;;;;;;;;23.05;51.38;96138.59;6222779;28;19925;-71
2023/07/03 15:39:41;;;;;;;;;;;;;;;22.86;51.37;96142.72;6239929;28;19921;-71
2023/07/03 15:42:45;;;;;;;;;;;;;;;22.69;52.16;96136.00;6246809;28;20002;-71
2023/07/03 15:46:06;;;;;;;;;;;;;;;22.53;52.83;96138.94;6247471;28;19913;-71
2023/07/03 15:49:09;;;;;;;;;;;;;;;22.38;52.84;96139.00;6246494;28;20413;-71
2023/07/03 15:52:10;;;;;;;;;;;;;;;22.26;52.44;96141.38;6246166;28;19940;-71
2023/07/03 15:55:11;;;;;;;;;;;;;;;22.17;52.70;96142.47;6245814;28;20278;-72
2023/07/03 15:58:12;;;;;;;;;;;;;;;22.06;53.30;96133.09;6246711;28;19927;-70
2023/07/03 16:01:17;;;;;;;;;;;;;;;21.93;54.02;96131.06;6246014;28;20409;-71
2023/07/03 16:04:21;;;;;;;;;;;;;;;21.78;54.16;96132.97;6246944;28;20376;-70